Terminal Aerodrome Forecast
Issued by NWS

Home | Current Version | Previous Version | Text Only | Print | Product List | Glossary On
Versions: 1 2 3 4 5 6 7 8 9 10 11 12 13 14 15 16 17 18 19 20 21 22 23 24
162
FTUS43 KBIS 071914 AAA
TAFMOT
TAF AMD
KMOT 071914Z 0719/0818 30030G41KT 3/4SM -SN BLSN BKN010 OVC080
     FM072300 30023G34KT 3SM BLSN VCSH OVC015
     FM080300 30019G27KT P6SM OVC008
     FM080600 29016G24KT P6SM BKN025
     FM081700 30011KT P6SM BKN008=

USA.gov is the U.S. government's official web portal to all federal, state and local government web resources and services.